ITY32A LIML-LEBL
Flight info
| Callsign | ITY32A |
|---|---|
| Flight time | 1h 15m |
| Altitude | 29000 |
| Route | ITCAP DCT LAGEN DCT GEKBA DCT VAMTU DCT KOLON DCT GANGU DCT PADKO DCT DIVKO DCT NILDU DCT BISBA |
| Aircraft | A20N/M-SDE2E3FGHIRWXY/LB1 |
Departure
| Time | 2026-05-06 18:35 |
|---|---|
| Airport | Milano Linate Airport (LIML) |
Arrival
| Time | 2026-05-06 19:51 |
|---|---|
| Airport | Josep Tarradellas Barcelona-El Prat Airport (LEBL) |
| Time | Latitude | Longitude | Altitude | Speed | Heading |
|---|---|---|---|---|---|
| 2026-05-06 18:04 | 45.45577 | 9.27894 | 353 ft | 0 kts | 90° |
| 2026-05-06 18:25 | 45.45577 | 9.27906 | 353 ft | 3 kts | 92° |
| 2026-05-06 18:25 | 45.45572 | 9.27956 | 354 ft | 7 kts | 102° |
| 2026-05-06 18:25 | 45.45570 | 9.27969 | 354 ft | 0 kts | 103° |
| 2026-05-06 18:29 | 45.45570 | 9.27971 | 354 ft | 0 kts | 108° |
| 2026-05-06 18:29 | 45.45549 | 9.27980 | 354 ft | 6 kts | 176° |
| 2026-05-06 18:29 | 45.45478 | 9.27977 | 353 ft | 13 kts | 179° |
| 2026-05-06 18:29 | 45.45370 | 9.27965 | 352 ft | 17 kts | 202° |
| 2026-05-06 18:30 | 45.45243 | 9.27884 | 352 ft | 21 kts | 188° |
| 2026-05-06 18:30 | 45.45079 | 9.27883 | 353 ft | 22 kts | 176° |
| 2026-05-06 18:30 | 45.44914 | 9.27909 | 353 ft | 21 kts | 162° |
| 2026-05-06 18:30 | 45.44758 | 9.27948 | 352 ft | 22 kts | 174° |
| 2026-05-06 18:31 | 45.44593 | 9.27965 | 348 ft | 23 kts | 177° |
| 2026-05-06 18:31 | 45.44423 | 9.27984 | 345 ft | 23 kts | 175° |
| 2026-05-06 18:31 | 45.44246 | 9.28005 | 343 ft | 23 kts | 175° |
| 2026-05-06 18:31 | 45.44073 | 9.28023 | 341 ft | 24 kts | 175° |
| 2026-05-06 18:32 | 45.43895 | 9.28044 | 340 ft | 23 kts | 174° |
| 2026-05-06 18:32 | 45.43718 | 9.28063 | 339 ft | 23 kts | 175° |
| 2026-05-06 18:32 | 45.43553 | 9.28080 | 338 ft | 16 kts | 175° |
| 2026-05-06 18:32 | 45.43448 | 9.28020 | 339 ft | 16 kts | 258° |
| 2026-05-06 18:33 | 45.43446 | 9.27964 | 339 ft | 0 kts | 266° |
| 2026-05-06 18:33 | 45.43445 | 9.27963 | 339 ft | 0 kts | 266° |
| 2026-05-06 18:34 | 45.43444 | 9.27906 | 340 ft | 7 kts | 268° |
| 2026-05-06 18:34 | 45.43456 | 9.27833 | 340 ft | 8 kts | 309° |
| 2026-05-06 18:34 | 45.43488 | 9.27815 | 341 ft | 0 kts | 355° |
| 2026-05-06 18:34 | 45.43573 | 9.27807 | 342 ft | 45 kts | 355° |
| 2026-05-06 18:35 | 45.44151 | 9.27744 | 344 ft | 123 kts | 355° |
| 2026-05-06 18:35 | 45.45149 | 9.27617 | 520 ft | 167 kts | 354° |
| 2026-05-06 18:35 | 45.46254 | 9.27476 | 1318 ft | 165 kts | 359° |
| 2026-05-06 18:35 | 45.47345 | 9.27883 | 2074 ft | 167 kts | 39° |
| 2026-05-06 18:36 | 45.47980 | 9.29217 | 2698 ft | 172 kts | 76° |
| 2026-05-06 18:36 | 45.47986 | 9.30938 | 3142 ft | 185 kts | 112° |
| 2026-05-06 18:36 | 45.47249 | 9.32466 | 3694 ft | 197 kts | 135° |
| 2026-05-06 18:36 | 45.46239 | 9.33903 | 4201 ft | 217 kts | 136° |
| 2026-05-06 18:37 | 45.45121 | 9.35510 | 4762 ft | 236 kts | 141° |
| 2026-05-06 18:37 | 45.43670 | 9.36606 | 5397 ft | 248 kts | 168° |
| 2026-05-06 18:37 | 45.41897 | 9.36796 | 6142 ft | 259 kts | 177° |
| 2026-05-06 18:37 | 45.40123 | 9.37438 | 7050 ft | 267 kts | 153° |
| 2026-05-06 18:38 | 45.38525 | 9.38789 | 7971 ft | 270 kts | 156° |
| 2026-05-06 18:38 | 45.36729 | 9.39449 | 8779 ft | 273 kts | 176° |
| 2026-05-06 18:38 | 45.34831 | 9.39717 | 9609 ft | 279 kts | 167° |
| 2026-05-06 18:38 | 45.33102 | 9.40945 | 10350 ft | 289 kts | 142° |
| 2026-05-06 18:39 | 45.31620 | 9.43014 | 10864 ft | 307 kts | 135° |
| 2026-05-06 18:39 | 45.30083 | 9.45255 | 11274 ft | 325 kts | 137° |
| 2026-05-06 18:39 | 45.28381 | 9.47498 | 11659 ft | 342 kts | 140° |
| 2026-05-06 18:40 | 45.24517 | 9.52031 | 12380 ft | 374 kts | 143° |
| 2026-05-06 18:40 | 45.22452 | 9.54341 | 13078 ft | 379 kts | 145° |
| 2026-05-06 18:40 | 45.20182 | 9.56078 | 13768 ft | 377 kts | 164° |
| 2026-05-06 18:40 | 45.17604 | 9.56602 | 14511 ft | 374 kts | 183° |
| 2026-05-06 18:41 | 45.15047 | 9.55983 | 15235 ft | 373 kts | 195° |
| 2026-05-06 18:41 | 45.12448 | 9.55456 | 15905 ft | 379 kts | 181° |
| 2026-05-06 18:41 | 45.09819 | 9.56075 | 16594 ft | 388 kts | 164° |
| 2026-05-06 18:41 | 45.07350 | 9.57797 | 17233 ft | 397 kts | 151° |
| 2026-05-06 18:42 | 45.05123 | 9.60259 | 17806 ft | 405 kts | 144° |
| 2026-05-06 18:42 | 45.02905 | 9.63011 | 18396 ft | 409 kts | 144° |
| 2026-05-06 18:42 | 45.00618 | 9.65488 | 18948 ft | 408 kts | 151° |
| 2026-05-06 18:42 | 44.98169 | 9.67682 | 19565 ft | 406 kts | 156° |
| 2026-05-06 18:43 | 44.95591 | 9.69680 | 20151 ft | 407 kts | 159° |
| 2026-05-06 18:43 | 44.92986 | 9.71523 | 20736 ft | 408 kts | 160° |
| 2026-05-06 18:43 | 44.90382 | 9.73281 | 21287 ft | 410 kts | 161° |
| 2026-05-06 18:43 | 44.87809 | 9.74978 | 21835 ft | 413 kts | 161° |
| 2026-05-06 18:44 | 44.85185 | 9.76693 | 22391 ft | 415 kts | 161° |
| 2026-05-06 18:44 | 44.82571 | 9.78393 | 22946 ft | 416 kts | 161° |
| 2026-05-06 18:44 | 44.79943 | 9.80100 | 23434 ft | 419 kts | 162° |
| 2026-05-06 18:44 | 44.77288 | 9.81812 | 23957 ft | 421 kts | 163° |
| 2026-05-06 18:45 | 44.74500 | 9.82975 | 24408 ft | 411 kts | 178° |
| 2026-05-06 18:45 | 44.71711 | 9.82923 | 24880 ft | 403 kts | 193° |
| 2026-05-06 18:45 | 44.69035 | 9.81768 | 25317 ft | 399 kts | 208° |
| 2026-05-06 18:45 | 44.66715 | 9.79643 | 25719 ft | 399 kts | 221° |
| 2026-05-06 18:46 | 44.64898 | 9.76702 | 26143 ft | 402 kts | 236° |
| 2026-05-06 18:46 | 44.63642 | 9.73226 | 26634 ft | 404 kts | 243° |
| 2026-05-06 18:46 | 44.62467 | 9.69588 | 27301 ft | 400 kts | 243° |
| 2026-05-06 18:46 | 44.61324 | 9.66088 | 27820 ft | 398 kts | 242° |
| 2026-05-06 18:47 | 44.60102 | 9.62337 | 28173 ft | 400 kts | 242° |
| 2026-05-06 18:47 | 44.58831 | 9.58434 | 28483 ft | 403 kts | 242° |
| 2026-05-06 18:47 | 44.57498 | 9.54340 | 28849 ft | 404 kts | 243° |
| 2026-05-06 18:48 | 44.55038 | 9.46766 | 28889 ft | 405 kts | 242° |
| 2026-05-06 18:48 | 44.52575 | 9.39207 | 28882 ft | 408 kts | 242° |
| 2026-05-06 18:49 | 44.50201 | 9.31934 | 28874 ft | 405 kts | 242° |
| 2026-05-06 18:49 | 44.47750 | 9.24442 | 28920 ft | 411 kts | 242° |
| 2026-05-06 18:49 | 44.46515 | 9.20688 | 29208 ft | 411 kts | 242° |
| 2026-05-06 18:50 | 44.45246 | 9.16759 | 29638 ft | 409 kts | 243° |
| 2026-05-06 18:50 | 44.44162 | 9.12818 | 30052 ft | 409 kts | 247° |
| 2026-05-06 18:50 | 44.43266 | 9.08746 | 30434 ft | 409 kts | 250° |
| 2026-05-06 18:50 | 44.42577 | 9.04598 | 30756 ft | 410 kts | 254° |
| 2026-05-06 18:51 | 44.42097 | 9.00363 | 31086 ft | 411 kts | 258° |
| 2026-05-06 18:51 | 44.41816 | 8.96069 | 31407 ft | 412 kts | 259° |
| 2026-05-06 18:51 | 44.41588 | 8.91683 | 31723 ft | 411 kts | 260° |
| 2026-05-06 18:51 | 44.41365 | 8.87378 | 32019 ft | 410 kts | 260° |
| 2026-05-06 18:52 | 44.41146 | 8.83056 | 32290 ft | 410 kts | 260° |
| 2026-05-06 18:52 | 44.40934 | 8.78918 | 32534 ft | 410 kts | 260° |
| 2026-05-06 18:52 | 44.40724 | 8.74830 | 32813 ft | 408 kts | 260° |
| 2026-05-06 18:52 | 44.40516 | 8.70760 | 33050 ft | 408 kts | 260° |
| 2026-05-06 18:53 | 44.40300 | 8.66661 | 33251 ft | 409 kts | 261° |
| 2026-05-06 18:53 | 44.40078 | 8.62450 | 33488 ft | 408 kts | 260° |
| 2026-05-06 18:53 | 44.39856 | 8.58249 | 33722 ft | 408 kts | 261° |
| 2026-05-06 18:53 | 44.39613 | 8.54105 | 33965 ft | 406 kts | 259° |
| 2026-05-06 18:54 | 44.39237 | 8.50053 | 34192 ft | 403 kts | 256° |
| 2026-05-06 18:54 | 44.38724 | 8.46114 | 34401 ft | 401 kts | 254° |
| 2026-05-06 18:54 | 44.38088 | 8.42214 | 34560 ft | 401 kts | 253° |
| 2026-05-06 18:54 | 44.37437 | 8.38362 | 34706 ft | 401 kts | 253° |
| 2026-05-06 18:55 | 44.36775 | 8.34456 | 34841 ft | 401 kts | 252° |
| 2026-05-06 18:55 | 44.36118 | 8.30587 | 35002 ft | 401 kts | 252° |
| 2026-05-06 18:55 | 44.35458 | 8.26706 | 35144 ft | 401 kts | 252° |
| 2026-05-06 18:55 | 44.34789 | 8.22787 | 35288 ft | 402 kts | 252° |
| 2026-05-06 18:56 | 44.34112 | 8.18844 | 35389 ft | 402 kts | 253° |
| 2026-05-06 18:56 | 44.33439 | 8.14909 | 35509 ft | 403 kts | 252° |
| 2026-05-06 18:56 | 44.32746 | 8.10896 | 35620 ft | 403 kts | 253° |
| 2026-05-06 18:56 | 44.32059 | 8.06901 | 35731 ft | 403 kts | 253° |
| 2026-05-06 18:57 | 44.31331 | 8.02682 | 35825 ft | 404 kts | 253° |
| 2026-05-06 18:57 | 44.29871 | 7.94264 | 35809 ft | 404 kts | 253° |
| 2026-05-06 18:58 | 44.28085 | 7.85910 | 35834 ft | 402 kts | 246° |
| 2026-05-06 18:58 | 44.25236 | 7.78200 | 35851 ft | 401 kts | 236° |
| 2026-05-06 18:59 | 44.21510 | 7.71550 | 35846 ft | 399 kts | 227° |
| 2026-05-06 18:59 | 44.17124 | 7.65806 | 35858 ft | 400 kts | 224° |
| 2026-05-06 19:00 | 44.12851 | 7.59836 | 35853 ft | 400 kts | 229° |
| 2026-05-06 19:00 | 44.08911 | 7.53553 | 35851 ft | 401 kts | 229° |
| 2026-05-06 19:01 | 44.05049 | 7.47397 | 35851 ft | 400 kts | 229° |
| 2026-05-06 19:01 | 44.01156 | 7.41195 | 35879 ft | 400 kts | 229° |
| 2026-05-06 19:02 | 43.97170 | 7.34855 | 35864 ft | 400 kts | 229° |
| 2026-05-06 19:02 | 43.93148 | 7.28468 | 35854 ft | 401 kts | 229° |
| 2026-05-06 19:03 | 43.89231 | 7.22256 | 35878 ft | 401 kts | 229° |
| 2026-05-06 19:03 | 43.85387 | 7.16169 | 35864 ft | 401 kts | 229° |
| 2026-05-06 19:04 | 43.81525 | 7.10074 | 35887 ft | 402 kts | 229° |
| 2026-05-06 19:04 | 43.77618 | 7.03876 | 35886 ft | 401 kts | 231° |
| 2026-05-06 19:05 | 43.73924 | 6.97036 | 35890 ft | 402 kts | 236° |
| 2026-05-06 19:05 | 43.70892 | 6.89999 | 35888 ft | 403 kts | 241° |
| 2026-05-06 19:06 | 43.68437 | 6.82705 | 35883 ft | 404 kts | 246° |
| 2026-05-06 19:06 | 43.66206 | 6.75167 | 35887 ft | 404 kts | 246° |
| 2026-05-06 19:07 | 43.64024 | 6.67806 | 35887 ft | 405 kts | 246° |
| 2026-05-06 19:07 | 43.61815 | 6.60361 | 35890 ft | 404 kts | 246° |
| 2026-05-06 19:08 | 43.59616 | 6.52964 | 35900 ft | 404 kts | 246° |
| 2026-05-06 19:08 | 43.57412 | 6.45573 | 35896 ft | 404 kts | 246° |
| 2026-05-06 19:09 | 43.55209 | 6.38202 | 35893 ft | 405 kts | 246° |
| 2026-05-06 19:09 | 43.52935 | 6.30614 | 35903 ft | 406 kts | 246° |
| 2026-05-06 19:10 | 43.50743 | 6.23319 | 35900 ft | 405 kts | 246° |
| 2026-05-06 19:10 | 43.48578 | 6.16130 | 35891 ft | 406 kts | 246° |
| 2026-05-06 19:11 | 43.46401 | 6.08929 | 35885 ft | 406 kts | 246° |
| 2026-05-06 19:11 | 43.44223 | 6.01774 | 35898 ft | 406 kts | 246° |
| 2026-05-06 19:12 | 43.42039 | 5.94610 | 35908 ft | 407 kts | 246° |
| 2026-05-06 19:12 | 43.39798 | 5.87276 | 35898 ft | 406 kts | 246° |
| 2026-05-06 19:13 | 43.37452 | 5.79617 | 35907 ft | 406 kts | 246° |
| 2026-05-06 19:13 | 43.35079 | 5.71884 | 35903 ft | 406 kts | 246° |
| 2026-05-06 19:14 | 43.32742 | 5.64294 | 35911 ft | 407 kts | 246° |
| 2026-05-06 19:14 | 43.30465 | 5.56923 | 35906 ft | 407 kts | 246° |
| 2026-05-06 19:15 | 43.28234 | 5.49710 | 35915 ft | 407 kts | 246° |
| 2026-05-06 19:15 | 43.26012 | 5.42554 | 35904 ft | 406 kts | 246° |
| 2026-05-06 19:16 | 43.23802 | 5.35449 | 35901 ft | 407 kts | 246° |
| 2026-05-06 19:16 | 43.21581 | 5.28351 | 35914 ft | 406 kts | 246° |
| 2026-05-06 19:17 | 43.19348 | 5.21237 | 35904 ft | 406 kts | 246° |
| 2026-05-06 19:17 | 43.17120 | 5.14135 | 35906 ft | 407 kts | 246° |
| 2026-05-06 19:18 | 43.14891 | 5.07053 | 35914 ft | 407 kts | 246° |
| 2026-05-06 19:18 | 43.12657 | 4.99970 | 35915 ft | 407 kts | 246° |
| 2026-05-06 19:19 | 43.10405 | 4.92858 | 35917 ft | 407 kts | 246° |
| 2026-05-06 19:19 | 43.08020 | 4.85909 | 35935 ft | 407 kts | 242° |
| 2026-05-06 19:20 | 43.05035 | 4.79354 | 35934 ft | 408 kts | 236° |
| 2026-05-06 19:20 | 43.01467 | 4.73309 | 35931 ft | 409 kts | 229° |
| 2026-05-06 19:21 | 42.97384 | 4.67905 | 35937 ft | 411 kts | 224° |
| 2026-05-06 19:21 | 42.93149 | 4.62770 | 35935 ft | 410 kts | 224° |
| 2026-05-06 19:22 | 42.88887 | 4.57620 | 35947 ft | 410 kts | 224° |
| 2026-05-06 19:22 | 42.84603 | 4.52459 | 35926 ft | 410 kts | 224° |
| 2026-05-06 19:23 | 42.80330 | 4.47325 | 35767 ft | 410 kts | 224° |
| 2026-05-06 19:23 | 42.78215 | 4.44789 | 35580 ft | 408 kts | 224° |
| 2026-05-06 19:23 | 42.76107 | 4.42263 | 35401 ft | 405 kts | 224° |
| 2026-05-06 19:23 | 42.74004 | 4.39748 | 35224 ft | 401 kts | 224° |
| 2026-05-06 19:24 | 42.71921 | 4.37260 | 35055 ft | 398 kts | 225° |
| 2026-05-06 19:24 | 42.69839 | 4.34769 | 34888 ft | 396 kts | 224° |
| 2026-05-06 19:24 | 42.67789 | 4.32323 | 34728 ft | 395 kts | 224° |
| 2026-05-06 19:24 | 42.65723 | 4.29856 | 34545 ft | 394 kts | 224° |
| 2026-05-06 19:25 | 42.63674 | 4.27414 | 34356 ft | 392 kts | 224° |
| 2026-05-06 19:25 | 42.61652 | 4.25004 | 34112 ft | 392 kts | 224° |
| 2026-05-06 19:25 | 42.59585 | 4.22546 | 33854 ft | 393 kts | 224° |
| 2026-05-06 19:25 | 42.57543 | 4.20118 | 33610 ft | 393 kts | 224° |
| 2026-05-06 19:26 | 42.55495 | 4.17683 | 33371 ft | 393 kts | 224° |
| 2026-05-06 19:26 | 42.53458 | 4.15268 | 33127 ft | 393 kts | 224° |
| 2026-05-06 19:26 | 42.51392 | 4.12817 | 32883 ft | 394 kts | 224° |
| 2026-05-06 19:26 | 42.49328 | 4.10374 | 32635 ft | 394 kts | 224° |
| 2026-05-06 19:27 | 42.47261 | 4.07928 | 32387 ft | 395 kts | 224° |
| 2026-05-06 19:27 | 42.45194 | 4.05483 | 32141 ft | 396 kts | 224° |
| 2026-05-06 19:27 | 42.43138 | 4.03054 | 31890 ft | 395 kts | 224° |
| 2026-05-06 19:27 | 42.41062 | 4.00603 | 31646 ft | 396 kts | 224° |
| 2026-05-06 19:28 | 42.38993 | 3.98165 | 31400 ft | 397 kts | 224° |
| 2026-05-06 19:28 | 42.36930 | 3.95735 | 31150 ft | 396 kts | 224° |
| 2026-05-06 19:28 | 42.34843 | 3.93276 | 30899 ft | 397 kts | 224° |
| 2026-05-06 19:28 | 42.32769 | 3.90833 | 30654 ft | 398 kts | 224° |
| 2026-05-06 19:29 | 42.30693 | 3.88395 | 30407 ft | 399 kts | 224° |
| 2026-05-06 19:29 | 42.28584 | 3.85918 | 30072 ft | 400 kts | 224° |
| 2026-05-06 19:29 | 42.26499 | 3.83472 | 29443 ft | 402 kts | 224° |
| 2026-05-06 19:29 | 42.24394 | 3.81010 | 28639 ft | 403 kts | 224° |
| 2026-05-06 19:30 | 42.22303 | 3.78568 | 27777 ft | 405 kts | 224° |
| 2026-05-06 19:30 | 42.20161 | 3.76064 | 26839 ft | 408 kts | 224° |
| 2026-05-06 19:30 | 42.18039 | 3.73587 | 26178 ft | 407 kts | 224° |
| 2026-05-06 19:30 | 42.15876 | 3.71063 | 25937 ft | 409 kts | 224° |
| 2026-05-06 19:31 | 42.13741 | 3.68576 | 25655 ft | 407 kts | 224° |
| 2026-05-06 19:31 | 42.11624 | 3.66113 | 25357 ft | 404 kts | 224° |
| 2026-05-06 19:31 | 42.07536 | 3.61095 | 24785 ft | 383 kts | 228° |
| 2026-05-06 19:32 | 42.05740 | 3.58597 | 24784 ft | 365 kts | 229° |
| 2026-05-06 19:32 | 42.04006 | 3.56183 | 24810 ft | 360 kts | 229° |
| 2026-05-06 19:32 | 42.02253 | 3.53736 | 24830 ft | 360 kts | 229° |
| 2026-05-06 19:32 | 42.00528 | 3.51331 | 24832 ft | 360 kts | 229° |
| 2026-05-06 19:33 | 41.98786 | 3.48901 | 24825 ft | 360 kts | 229° |
| 2026-05-06 19:33 | 41.97068 | 3.46508 | 24368 ft | 361 kts | 229° |
| 2026-05-06 19:33 | 41.95319 | 3.44074 | 23806 ft | 359 kts | 229° |
| 2026-05-06 19:33 | 41.93601 | 3.41684 | 23288 ft | 356 kts | 229° |
| 2026-05-06 19:34 | 41.91897 | 3.39315 | 22776 ft | 354 kts | 229° |
| 2026-05-06 19:34 | 41.90196 | 3.36951 | 22257 ft | 351 kts | 229° |
| 2026-05-06 19:34 | 41.88487 | 3.34582 | 21752 ft | 349 kts | 228° |
| 2026-05-06 19:34 | 41.86791 | 3.32230 | 21254 ft | 348 kts | 228° |
| 2026-05-06 19:35 | 41.85121 | 3.29916 | 20767 ft | 346 kts | 228° |
| 2026-05-06 19:35 | 41.83439 | 3.27588 | 20285 ft | 344 kts | 228° |
| 2026-05-06 19:35 | 41.81818 | 3.25215 | 19738 ft | 343 kts | 235° |
| 2026-05-06 19:35 | 41.80498 | 3.22542 | 19073 ft | 344 kts | 240° |
| 2026-05-06 19:36 | 41.79280 | 3.19811 | 18501 ft | 344 kts | 241° |
| 2026-05-06 19:36 | 41.78066 | 3.17090 | 17979 ft | 342 kts | 240° |
| 2026-05-06 19:36 | 41.76843 | 3.14387 | 17492 ft | 340 kts | 240° |
| 2026-05-06 19:36 | 41.75612 | 3.11703 | 16986 ft | 338 kts | 240° |
| 2026-05-06 19:37 | 41.74381 | 3.09041 | 16411 ft | 333 kts | 239° |
| 2026-05-06 19:37 | 41.73148 | 3.06392 | 15489 ft | 331 kts | 239° |
| 2026-05-06 19:37 | 41.71954 | 3.03836 | 14497 ft | 330 kts | 239° |
| 2026-05-06 19:37 | 41.71141 | 3.02097 | 13832 ft | 328 kts | 239° |
| 2026-05-06 19:38 | 41.69543 | 2.98693 | 12536 ft | 325 kts | 239° |
| 2026-05-06 19:38 | 41.68362 | 2.96184 | 11603 ft | 320 kts | 239° |
| 2026-05-06 19:38 | 41.67192 | 2.93697 | 10670 ft | 316 kts | 239° |
| 2026-05-06 19:38 | 41.66037 | 2.91247 | 9747 ft | 312 kts | 239° |
| 2026-05-06 19:39 | 41.64889 | 2.88809 | 8943 ft | 304 kts | 239° |
| 2026-05-06 19:39 | 41.63802 | 2.86509 | 8492 ft | 287 kts | 239° |
| 2026-05-06 19:39 | 41.62773 | 2.84333 | 8026 ft | 273 kts | 239° |
| 2026-05-06 19:39 | 41.61766 | 2.82200 | 7341 ft | 270 kts | 239° |
| 2026-05-06 19:40 | 41.60768 | 2.80088 | 6606 ft | 269 kts | 239° |
| 2026-05-06 19:40 | 41.59779 | 2.77997 | 5891 ft | 267 kts | 239° |
| 2026-05-06 19:40 | 41.58801 | 2.75930 | 5190 ft | 265 kts | 239° |
| 2026-05-06 19:40 | 41.57821 | 2.73862 | 4492 ft | 262 kts | 238° |
| 2026-05-06 19:41 | 41.56855 | 2.71826 | 3818 ft | 260 kts | 239° |
| 2026-05-06 19:41 | 41.55901 | 2.69815 | 3254 ft | 256 kts | 238° |
| 2026-05-06 19:41 | 41.54942 | 2.67788 | 2998 ft | 257 kts | 238° |
| 2026-05-06 19:41 | 41.53971 | 2.65744 | 2992 ft | 257 kts | 238° |
| 2026-05-06 19:42 | 41.53025 | 2.63756 | 2987 ft | 244 kts | 238° |
| 2026-05-06 19:42 | 41.52137 | 2.61890 | 2984 ft | 230 kts | 237° |
| 2026-05-06 19:42 | 41.51223 | 2.59973 | 2992 ft | 244 kts | 238° |
| 2026-05-06 19:42 | 41.50303 | 2.58044 | 2989 ft | 247 kts | 238° |
| 2026-05-06 19:43 | 41.49366 | 2.56080 | 2992 ft | 247 kts | 238° |
| 2026-05-06 19:43 | 41.48443 | 2.54145 | 2993 ft | 247 kts | 238° |
| 2026-05-06 19:43 | 41.47526 | 2.52225 | 2990 ft | 246 kts | 238° |
| 2026-05-06 19:43 | 41.46629 | 2.50347 | 2983 ft | 231 kts | 238° |
| 2026-05-06 19:44 | 41.45787 | 2.48584 | 2984 ft | 225 kts | 238° |
| 2026-05-06 19:44 | 41.44929 | 2.46791 | 2982 ft | 226 kts | 238° |
| 2026-05-06 19:44 | 41.44087 | 2.45029 | 2984 ft | 226 kts | 238° |
| 2026-05-06 19:44 | 41.43242 | 2.43263 | 2984 ft | 226 kts | 238° |
| 2026-05-06 19:45 | 41.42408 | 2.41522 | 2954 ft | 218 kts | 237° |
| 2026-05-06 19:45 | 41.41589 | 2.39841 | 2818 ft | 214 kts | 232° |
| 2026-05-06 19:45 | 41.40627 | 2.38356 | 2680 ft | 210 kts | 228° |
| 2026-05-06 19:45 | 41.39740 | 2.36835 | 2524 ft | 204 kts | 237° |
| 2026-05-06 19:46 | 41.39046 | 2.35213 | 2334 ft | 199 kts | 244° |
| 2026-05-06 19:46 | 41.38486 | 2.33553 | 2291 ft | 197 kts | 245° |
| 2026-05-06 19:46 | 41.37946 | 2.31889 | 2287 ft | 197 kts | 245° |
| 2026-05-06 19:46 | 41.37387 | 2.30202 | 2284 ft | 198 kts | 245° |
| 2026-05-06 19:47 | 41.36823 | 2.28540 | 2285 ft | 198 kts | 244° |
| 2026-05-06 19:47 | 41.36261 | 2.26905 | 2370 ft | 185 kts | 244° |
| 2026-05-06 19:47 | 41.35751 | 2.25429 | 2361 ft | 166 kts | 244° |
| 2026-05-06 19:47 | 41.35283 | 2.24073 | 2187 ft | 159 kts | 244° |
| 2026-05-06 19:48 | 41.34828 | 2.22757 | 1971 ft | 154 kts | 244° |
| 2026-05-06 19:48 | 41.34387 | 2.21477 | 1786 ft | 150 kts | 244° |
| 2026-05-06 19:48 | 41.33950 | 2.20208 | 1593 ft | 151 kts | 244° |
| 2026-05-06 19:48 | 41.33514 | 2.18940 | 1389 ft | 142 kts | 243° |
| 2026-05-06 19:49 | 41.33116 | 2.17783 | 1188 ft | 137 kts | 244° |
| 2026-05-06 19:49 | 41.32715 | 2.16615 | 1016 ft | 137 kts | 244° |
| 2026-05-06 19:49 | 41.32311 | 2.15439 | 839 ft | 136 kts | 244° |
| 2026-05-06 19:49 | 41.31911 | 2.14287 | 664 ft | 135 kts | 243° |
| 2026-05-06 19:50 | 41.31502 | 2.13131 | 482 ft | 135 kts | 243° |
| 2026-05-06 19:50 | 41.31101 | 2.11979 | 305 ft | 135 kts | 245° |
| 2026-05-06 19:50 | 41.30720 | 2.10820 | 143 ft | 134 kts | 244° |
| 2026-05-06 19:50 | 41.30348 | 2.09710 | 17 ft | 128 kts | 244° |
| 2026-05-06 19:51 | 41.30023 | 2.08776 | 18 ft | 87 kts | 245° |
| 2026-05-06 19:51 | 41.29838 | 2.08253 | 21 ft | 37 kts | 238° |
| 2026-05-06 19:51 | 41.29761 | 2.07974 | 22 ft | 27 kts | 252° |
| 2026-05-06 19:51 | 41.29751 | 2.07771 | 21 ft | 18 kts | 274° |
| 2026-05-06 19:52 | 41.29774 | 2.07643 | 20 ft | 2 kts | 308° |
| 2026-05-06 19:52 | 41.29787 | 2.07627 | 20 ft | 2 kts | 323° |
| 2026-05-06 19:52 | 41.29797 | 2.07619 | 21 ft | 0 kts | 329° |
| 2026-05-06 19:52 | 41.29799 | 2.07617 | 21 ft | 0 kts | 330° |
| 2026-05-06 19:53 | 41.29809 | 2.07610 | 21 ft | 2 kts | 335° |
| 2026-05-06 19:53 | 41.29824 | 2.07602 | 21 ft | 2 kts | 337° |
| 2026-05-06 19:53 | 41.29841 | 2.07593 | 22 ft | 3 kts | 336° |
| 2026-05-06 19:53 | 41.29917 | 2.07545 | 22 ft | 13 kts | 336° |
| 2026-05-06 19:54 | 41.29977 | 2.07533 | 23 ft | 8 kts | 9° |
| 2026-05-06 19:54 | 41.30024 | 2.07538 | 24 ft | 3 kts | 347° |
| 2026-05-06 19:54 | 41.30048 | 2.07523 | 24 ft | 4 kts | 334° |
| 2026-05-06 19:54 | 41.30062 | 2.07515 | 25 ft | 0 kts | 335° |
| 2026-05-06 19:55 | 41.30063 | 2.07514 | 25 ft | 0 kts | 335° |